Time;durP1;ratioP1;P1;durP2;ratioP2;P2;SDS_P1;SDS_P2;PMS_P1;PMS_P2;Temp;Humidity;BMP_temperature;BMP_pressure;BME280_temperature;BME280_humidity;BME280_pressure;Samples;Min_cycle;Max_cycle;Signal;HPM_P1;HPM_P2
2024/04/08 00:00:31;;;;;;;10.60;2.95;;;18.10;88.90;;;;;;5498550;26;19997;-70
2024/04/08 00:02:57;;;;;;;9.10;3.17;;;18.00;89.10;;;;;;5515461;25;20008;-71
2024/04/08 00:05:23;;;;;;;8.63;2.45;;;17.90;89.80;;;;;;5531982;25;19997;-68
2024/04/08 00:07:51;;;;;;;6.88;2.00;;;17.80;89.90;;;;;;5533537;25;19997;-69
2024/04/08 00:10:17;;;;;;;9.70;2.78;;;17.70;90.00;;;;;;5516194;25;19997;-69
2024/04/08 00:12:44;;;;;;;8.18;2.60;;;17.60;90.30;;;;;;5513763;25;20055;-69
2024/04/08 00:15:11;;;;;;;8.35;2.63;;;17.50;90.60;;;;;;5522651;25;20086;-69
2024/04/08 00:17:40;;;;;;;7.53;2.50;;;17.40;90.60;;;;;;5502782;25;19994;-68
2024/04/08 00:20:06;;;;;;;6.78;1.80;;;17.30;90.70;;;;;;5498405;25;20016;-69
2024/04/08 00:22:32;;;;;;;5.28;1.90;;;17.20;91.00;;;;;;5516518;25;19998;-68
2024/04/08 00:24:57;;;;;;;6.90;2.40;;;17.20;91.30;;;;;;5518807;25;20000;-68
2024/04/08 00:27:23;;;;;;;12.10;2.80;;;17.10;91.60;;;;;;5510544;25;20012;-69
2024/04/08 00:29:49;;;;;;;16.63;2.75;;;17.00;91.60;;;;;;5504343;25;20422;-69
2024/04/08 00:32:14;;;;;;;16.17;2.75;;;16.90;91.60;;;;;;5523499;25;20001;-70
2024/04/08 00:34:41;;;;;;;12.90;3.63;;;16.90;91.60;;;;;;5532458;25;19997;-70
2024/04/08 00:37:07;;;;;;;15.95;3.17;;;16.90;91.30;;;;;;5504655;25;20002;-69
2024/04/08 00:39:33;;;;;;;10.35;2.28;;;16.90;91.00;;;;;;5504007;26;19998;-68
2024/04/08 00:42:00;;;;;;;8.63;2.33;;;17.00;90.20;;;;;;5514761;26;20004;-68
2024/04/08 00:44:26;;;;;;;9.73;2.70;;;17.10;90.30;;;;;;5494849;26;20076;-70
2024/04/08 00:46:52;;;;;;;6.03;2.15;;;17.10;90.30;;;;;;5482924;26;20453;-69
2024/04/08 00:49:19;;;;;;;6.72;1.95;;;17.20;90.30;;;;;;5478098;26;20469;-70
2024/04/08 00:51:45;;;;;;;8.15;2.15;;;17.20;90.60;;;;;;5511362;26;20066;-69
2024/04/08 00:54:11;;;;;;;11.95;2.70;;;17.10;90.90;;;;;;5515481;26;20010;-70
2024/04/08 00:56:38;;;;;;;16.02;3.20;;;17.10;91.20;;;;;;5498362;26;19998;-70
2024/04/08 00:59:06;;;;;;;11.00;2.55;;;17.00;91.40;;;;;;5475581;26;19998;-70
2024/04/08 01:01:33;;;;;;;18.13;3.63;;;17.00;91.50;;;;;;5472824;26;20007;-71
2024/04/08 01:03:58;;;;;;;12.40;2.63;;;17.00;91.30;;;;;;5487672;26;20060;-69
2024/04/08 01:06:24;;;;;;;9.15;2.05;;;17.00;91.30;;;;;;5499963;26;20009;-69
2024/04/08 01:08:50;;;;;;;9.15;2.58;;;16.90;91.20;;;;;;5488387;26;20091;-69
2024/04/08 01:11:16;;;;;;;11.50;2.22;;;17.00;91.20;;;;;;5463105;26;20067;-69
2024/04/08 01:13:41;;;;;;;8.95;2.15;;;17.00;91.10;;;;;;5472157;26;20005;-69
2024/04/08 01:16:07;;;;;;;9.25;2.60;;;17.00;90.80;;;;;;5512313;26;20327;-69
2024/04/08 01:18:33;;;;;;;10.27;1.98;;;17.00;90.80;;;;;;5458221;26;20002;-69
2024/04/08 01:21:02;;;;;;;11.95;2.58;;;17.00;91.00;;;;;;5481643;26;20022;-69
2024/04/08 01:23:29;;;;;;;7.65;2.63;;;17.00;91.30;;;;;;5516353;26;19997;-69
2024/04/08 01:25:55;;;;;;;10.23;2.60;;;17.00;91.40;;;;;;5496171;26;19994;-70
2024/04/08 01:28:22;;;;;;;8.63;2.45;;;17.00;91.30;;;;;;5496390;26;20054;-70
2024/04/08 01:30:49;;;;;;;14.90;2.25;;;17.00;91.10;;;;;;5507400;26;20006;-70
2024/04/08 01:33:16;;;;;;;4.80;2.33;;;17.00;90.80;;;;;;5521225;26;19997;-70
2024/04/08 01:35:42;;;;;;;12.60;2.50;;;17.10;90.70;;;;;;5502760;26;20460;-69
2024/04/08 01:38:07;;;;;;;7.68;2.50;;;17.10;90.90;;;;;;5504098;26;20029;-69
2024/04/08 01:40:33;;;;;;;13.40;2.70;;;17.20;91.20;;;;;;5511557;26;20006;-69
2024/04/08 01:42:59;;;;;;;7.57;2.17;;;17.30;91.30;;;;;;5510585;26;20005;-69
2024/04/08 01:45:24;;;;;;;8.27;2.38;;;17.20;91.10;;;;;;5497415;26;19994;-69
2024/04/08 01:47:50;;;;;;;12.75;3.00;;;17.20;91.10;;;;;;5478752;26;19999;-69
2024/04/08 01:50:15;;;;;;;5.72;2.47;;;17.10;91.10;;;;;;5474574;26;19999;-69
2024/04/08 01:52:41;;;;;;;12.13;2.33;;;17.10;91.50;;;;;;5493239;26;20439;-69
2024/04/08 01:55:07;;;;;;;10.70;2.20;;;17.00;91.10;;;;;;5492735;26;20439;-70
2024/04/08 01:57:32;;;;;;;9.93;2.28;;;17.00;91.10;;;;;;5502911;26;20009;-69
2024/04/08 01:59:58;;;;;;;6.32;2.22;;;17.00;91.40;;;;;;5486839;26;20009;-69
2024/04/08 02:02:24;;;;;;;8.43;1.92;;;17.00;91.80;;;;;;5497632;26;20012;-69
2024/04/08 02:04:50;;;;;;;6.65;2.25;;;17.00;91.80;;;;;;5507877;26;20617;-68
2024/04/08 02:07:16;;;;;;;6.88;2.13;;;16.90;91.90;;;;;;5514840;26;20086;-69
2024/04/08 02:09:42;;;;;;;9.00;2.45;;;16.90;92.30;;;;;;5501351;26;20006;-69
2024/04/08 02:12:07;;;;;;;5.65;2.38;;;16.80;92.30;;;;;;5502760;26;19998;-69
2024/04/08 02:14:33;;;;;;;8.73;2.47;;;16.80;92.40;;;;;;5479424;26;20012;-68
2024/04/08 02:16:58;;;;;;;9.02;2.78;;;16.80;92.70;;;;;;5498794;26;20045;-68
2024/04/08 02:19:25;;;;;;;5.78;1.83;;;16.70;92.60;;;;;;5453572;26;20525;-68
2024/04/08 02:21:50;;;;;;;12.52;2.65;;;16.70;92.60;;;;;;5498679;26;20069;-68
2024/04/08 02:24:16;;;;;;;7.93;2.28;;;16.70;92.90;;;;;;5505732;26;20034;-68
2024/04/08 02:26:42;;;;;;;7.05;2.10;;;16.60;93.10;;;;;;5494923;26;20075;-68
2024/04/08 02:29:07;;;;;;;9.88;2.30;;;16.50;93.30;;;;;;5486832;26;20013;-67
2024/04/08 02:31:33;;;;;;;7.90;2.00;;;16.50;93.50;;;;;;5512083;26;19993;-68
2024/04/08 02:33:58;;;;;;;5.40;2.17;;;16.40;93.80;;;;;;5519377;26;19993;-68
2024/04/08 02:36:24;;;;;;;13.32;2.22;;;16.40;93.80;;;;;;5487290;26;20049;-68
2024/04/08 02:38:50;;;;;;;7.18;2.20;;;16.30;94.00;;;;;;5498305;26;19994;-68
2024/04/08 02:41:15;;;;;;;7.90;2.08;;;16.20;94.20;;;;;;5511534;26;20013;-67
2024/04/08 02:43:41;;;;;;;5.97;1.80;;;16.20;94.40;;;;;;5483214;26;20002;-67
2024/04/08 02:46:06;;;;;;;6.95;2.65;;;16.10;94.50;;;;;;5488183;26;20016;-67
2024/04/08 02:48:32;;;;;;;8.57;2.33;;;16.00;94.50;;;;;;5461493;26;20103;-68
2024/04/08 02:50:57;;;;;;;10.40;2.42;;;16.10;99.90;;;;;;5492619;26;20051;-68
2024/04/08 02:53:24;;;;;;;8.77;2.38;;;16.00;94.60;;;;;;5518524;26;20311;-68
2024/04/08 02:56:00;;;;;;;9.68;2.13;;;15.90;94.50;;;;;;5495104;26;19998;-68
2024/04/08 02:58:25;;;;;;;5.97;2.08;;;15.90;94.50;;;;;;5501028;26;20029;-69
2024/04/08 03:00:51;;;;;;;5.68;2.13;;;15.80;94.50;;;;;;5480992;26;20005;-68
2024/04/08 03:03:18;;;;;;;9.13;2.67;;;15.70;94.70;;;;;;5435948;26;20069;-68
2024/04/08 03:05:44;;;;;;;13.70;2.53;;;15.70;94.90;;;;;;5494364;26;20020;-68
2024/04/08 03:08:09;;;;;;;12.55;2.35;;;15.60;95.30;;;;;;5506039;26;20042;-69
2024/04/08 03:10:35;;;;;;;12.43;2.63;;;15.60;95.40;;;;;;5516601;26;20029;-68
2024/04/08 03:13:02;;;;;;;6.28;2.30;;;15.60;95.30;;;;;;5503915;26;20017;-68
2024/04/08 03:15:27;;;;;;;10.27;2.42;;;15.50;95.10;;;;;;5491540;26;20005;-68
2024/04/08 03:17:53;;;;;;;9.93;2.72;;;15.60;95.10;;;;;;5481398;26;20002;-69
2024/04/08 03:20:18;;;;;;;10.57;2.55;;;15.60;94.50;;;;;;5509855;26;20002;-68
2024/04/08 03:22:44;;;;;;;11.05;1.98;;;15.60;94.00;;;;;;5495036;26;20038;-68
2024/04/08 03:25:10;;;;;;;17.17;2.92;;;15.70;93.40;;;;;;5487308;26;20048;-68
2024/04/08 03:27:35;;;;;;;13.27;2.03;;;15.80;93.40;;;;;;5501472;26;20319;-68
2024/04/08 03:30:01;;;;;;;15.98;2.30;;;15.90;93.40;;;;;;5490715;26;20012;-68
2024/04/08 03:32:26;;;;;;;5.15;1.88;;;15.80;93.90;;;;;;5507819;26;20334;-69
2024/04/08 03:34:52;;;;;;;7.00;2.10;;;15.70;94.10;;;;;;5492077;26;20010;-68
2024/04/08 03:37:25;;;;;;;7.53;2.03;;;15.60;94.40;;;;;;5489101;26;19994;-68
2024/04/08 03:39:50;;;;;;;4.20;2.20;;;15.50;94.70;;;;;;5511239;26;20359;-68
2024/04/08 03:42:16;;;;;;;6.03;2.17;;;15.40;95.00;;;;;;5513742;26;20077;-68
2024/04/08 03:44:41;;;;;;;8.32;2.67;;;15.30;95.10;;;;;;5491933;26;20503;-68
2024/04/08 03:47:07;;;;;;;7.03;2.63;;;15.20;95.50;;;;;;5487428;26;20449;-68
2024/04/08 03:49:33;;;;;;;11.00;2.47;;;15.10;95.80;;;;;;5441358;26;20009;-68
2024/04/08 03:51:58;;;;;;;6.53;2.17;;;15.10;95.80;;;;;;5476690;26;20038;-68
2024/04/08 03:54:24;;;;;;;10.13;3.33;;;15.00;96.10;;;;;;5477959;26;20170;-68
2024/04/08 03:56:49;;;;;;;8.73;2.47;;;14.90;96.10;;;;;;5504010;26;19995;-68
2024/04/08 03:59:15;;;;;;;7.15;2.05;;;14.90;96.10;;;;;;5506395;26;19998;-68
2024/04/08 04:01:40;;;;;;;11.63;2.70;;;14.90;96.30;;;;;;5488742;26;20089;-68
2024/04/08 04:04:06;;;;;;;11.43;2.55;;;14.80;96.10;;;;;;5507968;26;20009;-68
2024/04/08 04:06:31;;;;;;;10.63;2.85;;;14.80;96.10;;;;;;5502651;26;20009;-68
2024/04/08 04:08:57;;;;;;;14.90;2.35;;;14.80;95.70;;;;;;5496751;26;19994;-68
2024/04/08 04:11:25;;;;;;;7.95;2.40;;;14.80;95.30;;;;;;5496354;26;20007;-68
2024/04/08 04:13:51;;;;;;;12.55;2.85;;;14.90;95.20;;;;;;5502327;26;20894;-68
2024/04/08 04:16:16;;;;;;;8.40;2.05;;;15.00;94.90;;;;;;5508281;26;19993;-68
2024/04/08 04:18:42;;;;;;;9.13;2.20;;;15.00;95.00;;;;;;5461944;26;20006;-68
2024/04/08 04:21:08;;;;;;;11.48;2.15;;;15.00;95.20;;;;;;5492308;26;20478;-68
2024/04/08 04:23:33;;;;;;;8.25;2.00;;;14.90;95.30;;;;;;5503083;26;20010;-68
2024/04/08 04:25:59;;;;;;;14.30;3.40;;;14.80;95.60;;;;;;5503241;26;19993;-68
2024/04/08 04:28:25;;;;;;;10.00;1.92;;;14.80;96.00;;;;;;5501324;26;20330;-68
2024/04/08 04:30:58;;;;;;;11.38;2.50;;;14.70;96.30;;;;;;5514764;26;20038;-68
2024/04/08 04:33:24;;;;;;;9.85;2.40;;;14.70;96.20;;;;;;5497677;26;20076;-69
2024/04/08 04:35:54;;;;;;;12.82;2.60;;;14.60;96.40;;;;;;5513634;26;20013;-68
2024/04/08 04:38:20;;;;;;;9.85;2.47;;;14.60;96.80;;;;;;5513374;26;20435;-68
2024/04/08 04:40:45;;;;;;;14.00;2.78;;;14.50;96.90;;;;;;5516227;26;20002;-68
2024/04/08 04:43:11;;;;;;;13.05;2.42;;;14.50;97.00;;;;;;5477625;26;20400;-68
2024/04/08 04:45:36;;;;;;;8.55;2.50;;;14.40;96.80;;;;;;5516435;26;19993;-68
2024/04/08 04:48:02;;;;;;;7.40;1.85;;;14.40;97.00;;;;;;5474009;26;20079;-68
2024/04/08 04:50:30;;;;;;;13.07;2.95;;;14.30;97.20;;;;;;5477060;26;20003;-68
2024/04/08 04:52:55;;;;;;;11.40;2.92;;;14.30;97.40;;;;;;5503218;26;20017;-68
2024/04/08 04:55:21;;;;;;;10.60;2.60;;;14.30;97.60;;;;;;5511075;26;20761;-68
2024/04/08 04:57:47;;;;;;;16.15;3.25;;;14.20;98.40;;;;;;5501365;26;20011;-68
2024/04/08 05:00:13;;;;;;;9.98;2.25;;;14.10;98.60;;;;;;5492466;26;20326;-68
2024/04/08 05:02:38;;;;;;;9.50;2.40;;;14.20;98.70;;;;;;5506761;26;20078;-68
2024/04/08 05:05:04;;;;;;;7.25;2.97;;;14.10;98.70;;;;;;5522715;26;20438;-68
2024/04/08 05:07:29;;;;;;;12.20;3.05;;;14.10;99.00;;;;;;5493820;26;20009;-68
2024/04/08 05:09:57;;;;;;;12.80;2.72;;;14.10;99.40;;;;;;5501150;26;19989;-68
2024/04/08 05:12:23;;;;;;;8.15;2.60;;;14.10;99.60;;;;;;5506982;26;20075;-68
2024/04/08 05:14:48;;;;;;;5.57;1.85;;;14.20;99.60;;;;;;5501439;26;19994;-68
2024/04/08 05:17:14;;;;;;;7.63;2.38;;;14.10;99.80;;;;;;5478961;26;19999;-69
2024/04/08 05:19:39;;;;;;;10.27;2.90;;;14.20;99.90;;;;;;5474987;26;19994;-68
2024/04/08 05:22:05;;;;;;;16.35;4.35;;;14.20;99.90;;;;;;5503970;26;20013;-67
2024/04/08 05:24:31;;;;;;;11.13;2.67;;;14.10;99.90;;;;;;5487807;26;19998;-67
2024/04/08 05:26:56;;;;;;;12.77;2.85;;;14.20;99.90;;;;;;5498912;26;20008;-73
2024/04/08 05:29:24;;;;;;;10.57;2.35;;;14.20;99.90;;;;;;5498322;26;20442;-69
2024/04/08 05:31:50;;;;;;;17.77;4.15;;;14.20;99.90;;;;;;5522677;26;20474;-69
2024/04/08 05:34:16;;;;;;;12.95;3.00;;;14.30;99.90;;;;;;5501518;26;20012;-68
2024/04/08 05:36:41;;;;;;;13.27;2.55;;;14.40;99.90;;;;;;5499327;26;20002;-67
2024/04/08 05:39:07;;;;;;;9.48;2.50;;;14.40;99.90;;;;;;5519809;26;20733;-70
2024/04/08 05:41:33;;;;;;;9.60;2.35;;;14.40;99.90;;;;;;5502293;26;20401;-73
2024/04/08 05:43:58;;;;;;;9.13;2.45;;;14.50;99.90;;;;;;5498923;26;20002;-69
2024/04/08 05:46:24;;;;;;;7.68;2.40;;;14.60;99.90;;;;;;5490626;26;20357;-70
2024/04/08 05:48:50;;;;;;;8.75;2.45;;;14.60;99.90;;;;;;5462355;26;20002;-69
2024/04/08 05:51:16;;;;;;;7.60;2.40;;;14.70;99.90;;;;;;5487907;26;20026;-69
2024/04/08 05:53:41;;;;;;;9.50;2.75;;;14.70;99.90;;;;;;5509837;26;20012;-69
2024/04/08 05:56:07;;;;;;;9.45;2.60;;;14.80;99.90;;;;;;5497538;26;20014;-71
2024/04/08 05:58:33;;;;;;;7.43;2.42;;;14.90;99.90;;;;;;5494625;26;20073;-70
2024/04/08 06:00:58;;;;;;;14.88;3.42;;;15.00;99.90;;;;;;5499034;26;20009;-68
2024/04/08 06:03:24;;;;;;;8.32;3.28;;;15.00;99.90;;;;;;5503938;26;20339;-69
2024/04/08 06:05:49;;;;;;;12.38;2.80;;;15.20;99.90;;;;;;5508659;26;19997;-70
2024/04/08 06:08:15;;;;;;;12.48;3.15;;;15.30;99.80;;;;;;5501009;26;20047;-70
2024/04/08 06:10:46;;;;;;;10.35;2.55;;;15.40;99.70;;;;;;5509167;26;20002;-73
2024/04/08 06:13:11;;;;;;;5.90;2.33;;;15.50;99.60;;;;;;5489954;26;20005;-72
2024/04/08 06:15:37;;;;;;;7.78;2.75;;;15.60;99.60;;;;;;5487987;26;20458;-71
2024/04/08 06:18:03;;;;;;;6.07;1.95;;;15.70;99.50;;;;;;5473998;26;20013;-71
2024/04/08 06:20:28;;;;;;;10.63;2.85;;;15.80;99.50;;;;;;5477784;26;19997;-72
2024/04/08 06:22:54;;;;;;;8.88;2.53;;;15.90;99.40;;;;;;5499498;26;20328;-75
2024/04/08 06:25:20;;;;;;;10.05;2.90;;;16.00;99.30;;;;;;5493020;26;20013;-68
2024/04/08 06:27:47;;;;;;;15.23;3.05;;;16.10;99.90;;;;;;5502802;26;19998;-68
2024/04/08 06:30:12;;;;;;;10.80;3.05;;;16.20;99.40;;;;;;5497065;26;20017;-69
2024/04/08 06:32:38;;;;;;;8.80;3.45;;;16.30;99.30;;;;;;5502515;26;20022;-68
2024/04/08 06:35:04;;;;;;;11.40;3.40;;;16.40;99.30;;;;;;5517756;26;19997;-68
2024/04/08 06:37:29;;;;;;;12.63;3.42;;;16.50;99.60;;;;;;5496777;26;20324;-68
2024/04/08 06:39:55;;;;;;;8.10;3.15;;;16.60;99.50;;;;;;5507036;26;20349;-68
2024/04/08 06:42:20;;;;;;;8.10;3.05;;;16.70;99.30;;;;;;5491125;26;20078;-69
2024/04/08 06:44:50;;;;;;;12.63;3.13;;;16.70;99.10;;;;;;5491801;26;20326;-69
2024/04/08 06:47:16;;;;;;;8.65;2.90;;;16.80;98.70;;;;;;5474125;26;20360;-69
2024/04/08 06:49:43;;;;;;;9.75;2.92;;;17.00;98.60;;;;;;5473414;26;19998;-70
2024/04/08 06:52:09;;;;;;;8.88;2.60;;;17.10;98.20;;;;;;5493492;26;20038;-70
2024/04/08 06:54:35;;;;;;;12.45;4.28;;;17.20;97.80;;;;;;5485398;26;20427;-70
2024/04/08 06:57:00;;;;;;;17.92;4.07;;;17.30;97.40;;;;;;5509972;26;19994;-70
2024/04/08 06:59:27;;;;;;;9.40;3.28;;;17.50;97.10;;;;;;5480897;26;19998;-70
2024/04/08 07:01:53;;;;;;;14.52;3.20;;;17.70;97.40;;;;;;5485606;26;19994;-70
2024/04/08 07:04:21;;;;;;;12.18;2.75;;;17.80;96.90;;;;;;5503051;26;20009;-69
2024/04/08 07:06:46;;;;;;;18.73;3.65;;;17.80;96.60;;;;;;5503260;26;20025;-69
2024/04/08 07:09:12;;;;;;;13.73;3.67;;;18.00;96.30;;;;;;5505893;26;20009;-69
2024/04/08 07:11:38;;;;;;;11.50;3.30;;;18.10;96.20;;;;;;5491642;26;20009;-69
2024/04/08 07:14:03;;;;;;;16.02;3.88;;;18.10;96.10;;;;;;5497553;26;20002;-66
2024/04/08 07:16:29;;;;;;;15.18;3.35;;;18.30;95.70;;;;;;5460982;26;20627;-70
2024/04/08 07:18:54;;;;;;;12.55;3.47;;;18.40;95.40;;;;;;5466956;26;20081;-70
2024/04/08 07:21:21;;;;;;;13.27;3.88;;;18.50;95.30;;;;;;5492862;26;19994;-69
2024/04/08 07:23:51;;;;;;;17.33;3.60;;;18.50;95.40;;;;;;5517503;26;19998;-68
2024/04/08 07:26:17;;;;;;;15.55;3.88;;;18.70;95.10;;;;;;5488211;26;19998;-70
2024/04/08 07:28:44;;;;;;;14.25;3.10;;;18.70;95.30;;;;;;5482637;26;20002;-70
2024/04/08 07:31:10;;;;;;;17.15;3.20;;;18.80;95.50;;;;;;5505274;26;19994;-70
2024/04/08 07:33:35;;;;;;;16.85;3.45;;;18.90;95.00;;;;;;5481177;26;20017;-70
2024/04/08 07:36:01;;;;;;;9.48;2.35;;;19.00;95.00;;;;;;5490819;26;20005;-70
2024/04/08 07:38:26;;;;;;;8.90;2.92;;;19.10;95.00;;;;;;5497643;26;20003;-70
2024/04/08 07:40:52;;;;;;;14.38;2.97;;;19.20;94.70;;;;;;5507805;26;19997;-70
2024/04/08 07:43:17;;;;;;;12.40;3.67;;;19.30;94.60;;;;;;5503001;26;20331;-70
2024/04/08 07:45:43;;;;;;;13.73;3.17;;;19.50;94.50;;;;;;5498505;26;20494;-69
2024/04/08 07:48:09;;;;;;;22.45;3.80;;;19.60;94.40;;;;;;5511741;26;20002;-69
2024/04/08 07:50:37;;;;;;;10.45;3.38;;;19.80;93.90;;;;;;5513168;26;19998;-70
2024/04/08 07:53:03;;;;;;;15.27;3.90;;;20.00;93.70;;;;;;5510577;26;20279;-70
2024/04/08 07:55:29;;;;;;;18.55;3.63;;;20.10;93.20;;;;;;5488908;26;20723;-70
2024/04/08 07:57:54;;;;;;;14.23;3.22;;;20.30;93.40;;;;;;5491236;26;20337;-71
2024/04/08 08:00:20;;;;;;;14.40;3.53;;;20.30;93.00;;;;;;5491744;26;20075;-70
2024/04/08 08:02:45;;;;;;;10.52;3.38;;;20.50;92.60;;;;;;5480063;26;20097;-70
2024/04/08 08:05:11;;;;;;;15.52;3.60;;;20.60;92.50;;;;;;5507088;26;20013;-70
2024/04/08 08:07:37;;;;;;;8.35;3.13;;;20.60;92.50;;;;;;5497085;26;19997;-70
2024/04/08 08:10:03;;;;;;;14.75;3.80;;;20.70;92.30;;;;;;5493618;26;20006;-70
2024/04/08 08:12:28;;;;;;;13.70;3.35;;;20.70;92.40;;;;;;5495627;26;20012;-70
2024/04/08 08:14:54;;;;;;;11.25;3.33;;;20.80;92.30;;;;;;5497825;26;19995;-70
2024/04/08 08:17:24;;;;;;;13.63;3.58;;;20.90;92.70;;;;;;5493444;26;20084;-70
2024/04/08 08:19:51;;;;;;;18.23;3.50;;;21.10;92.20;;;;;;5490879;26;20001;-70
2024/04/08 08:22:16;;;;;;;11.02;3.22;;;21.20;91.50;;;;;;5483906;26;19989;-70
2024/04/08 08:24:42;;;;;;;13.10;3.28;;;21.30;91.50;;;;;;5485690;26;20382;-70
2024/04/08 08:27:08;;;;;;;16.27;3.88;;;21.40;91.80;;;;;;5479013;26;19997;-70
2024/04/08 08:29:34;;;;;;;17.90;4.00;;;21.50;91.70;;;;;;5509117;26;20012;-70
2024/04/08 08:32:01;;;;;;;15.57;3.60;;;21.60;91.40;;;;;;5475805;26;20017;-70
2024/04/08 08:34:27;;;;;;;16.02;4.07;;;21.70;91.10;;;;;;5497054;26;19989;-69
2024/04/08 08:36:53;;;;;;;19.77;4.22;;;21.80;91.10;;;;;;5513346;26;20446;-69
2024/04/08 08:39:19;;;;;;;20.65;5.40;;;21.90;91.10;;;;;;5474723;26;20013;-70
2024/04/08 08:41:51;;;;;;;18.15;4.32;;;22.00;91.50;;;;;;5499553;26;20433;-69
2024/04/08 08:44:21;;;;;;;15.07;3.63;;;22.20;91.70;;;;;;5480128;26;20432;-69
2024/04/08 08:46:50;;;;;;;25.75;4.38;;;22.20;91.50;;;;;;5518969;26;20066;-70
2024/04/08 08:49:17;;;;;;;12.93;3.72;;;22.40;91.80;;;;;;5507006;26;19994;-70
2024/04/08 08:51:42;;;;;;;13.70;4.05;;;22.50;90.90;;;;;;5498738;26;20523;-70
2024/04/08 08:54:09;;;;;;;11.07;3.90;;;22.60;90.70;;;;;;5515637;26;20005;-71
2024/04/08 08:56:35;;;;;;;20.90;4.05;;;22.70;90.80;;;;;;5511469;26;20048;-70
2024/04/08 08:59:03;;;;;;;21.05;4.18;;;22.80;89.90;;;;;;5496291;26;19994;-70
2024/04/08 09:01:33;;;;;;;16.05;4.30;;;23.00;89.80;;;;;;5497198;26;20002;-70
2024/04/08 09:04:03;;;;;;;19.60;4.18;;;23.10;89.20;;;;;;5519958;26;20004;-70
2024/04/08 09:06:29;;;;;;;;;;;23.30;86.30;;;;;;5493570;26;20652;-70
2024/04/08 09:08:55;;;;;;;10.57;2.45;;;23.30;81.70;;;;;;5487471;26;19965;-70
2024/04/08 09:11:21;;;;;;;13.77;2.88;;;23.40;75.80;;;;;;5473270;26;20002;-71
2024/04/08 09:13:47;;;;;;;9.13;2.25;;;23.60;74.30;;;;;;5497132;26;20006;-70
2024/04/08 09:16:24;;;;;;;8.55;2.30;;;23.70;73.60;;;;;;5476300;26;20013;-70
2024/04/08 09:18:49;;;;;;;13.40;2.95;;;23.90;73.10;;;;;;5477648;26;20002;-70
2024/04/08 09:21:15;;;;;;;13.60;2.70;;;24.10;72.90;;;;;;5496901;26;20013;-70
2024/04/08 09:23:42;;;;;;;4.80;1.80;;;24.40;72.40;;;;;;5488995;26;20025;-70
2024/04/08 09:26:08;;;;;;;8.05;2.40;;;24.60;72.00;;;;;;5475241;26;19994;-71
2024/04/08 09:28:35;;;;;;;14.80;2.63;;;24.80;71.80;;;;;;5488826;26;20405;-71
2024/04/08 09:31:01;;;;;;;20.38;2.70;;;24.90;70.10;;;;;;5502790;26;19990;-71
2024/04/08 09:33:27;;;;;;;13.40;2.45;;;25.00;69.60;;;;;;5521069;26;20009;-71
2024/04/08 09:35:53;;;;;;;18.05;2.80;;;25.20;69.80;;;;;;5502580;26;20074;-71
2024/04/08 09:38:20;;;;;;;16.10;3.40;;;25.20;70.50;;;;;;5504593;26;20008;-71
2024/04/08 09:40:49;;;;;;;10.43;2.40;;;25.30;70.10;;;;;;5497051;26;20009;-70
2024/04/08 09:43:15;;;;;;;20.00;3.30;;;25.50;70.40;;;;;;5468154;26;20455;-71
2024/04/08 09:45:42;;;;;;;9.02;2.30;;;25.70;69.00;;;;;;5499906;26;20070;-70
2024/04/08 09:48:13;;;;;;;35.67;5.25;;;25.80;67.90;;;;;;5484240;26;19991;-71
2024/04/08 09:50:41;;;;;;;19.10;2.75;;;26.00;67.00;;;;;;5476925;26;20288;-71
2024/04/08 09:53:08;;;;;;;16.60;3.25;;;26.10;67.30;;;;;;5503523;26;20002;-71
2024/04/08 09:55:38;;;;;;;11.43;2.80;;;26.30;67.00;;;;;;5475773;26;19998;-71
2024/04/08 09:58:08;;;;;;;12.88;2.55;;;26.40;66.30;;;;;;5496296;26;20064;-71
2024/04/08 10:00:36;;;;;;;13.35;2.80;;;26.60;65.90;;;;;;5486531;26;19998;-71
2024/04/08 10:03:08;;;;;;;16.15;2.42;;;26.60;64.90;;;;;;5471495;26;20370;-71
2024/04/08 10:05:37;;;;;;;12.10;2.33;;;26.70;63.50;;;;;;5493513;26;19998;-71
2024/04/08 10:08:04;;;;;;;33.30;3.60;;;26.90;63.00;;;;;;5499545;26;20596;-71
2024/04/08 10:10:30;;;;;;;12.27;3.08;;;27.00;62.10;;;;;;5479990;26;20021;-71
2024/04/08 10:12:59;;;;;;;20.10;3.53;;;27.10;61.20;;;;;;5477099;26;20002;-70
2024/04/08 10:15:32;;;;;;;17.50;2.45;;;27.20;61.20;;;;;;5484418;26;20334;-72
2024/04/08 10:17:58;;;;;;;8.15;2.13;;;27.40;60.40;;;;;;5517630;26;20073;-70
2024/04/08 10:20:25;;;;;;;7.30;1.88;;;27.50;60.00;;;;;;5500182;26;20045;-70
2024/04/08 10:22:51;;;;;;;13.32;2.35;;;27.60;60.30;;;;;;5498100;26;20446;-70
2024/04/08 10:25:37;;;;;;;9.60;1.95;;;27.70;60.00;;;;;;5509898;26;20358;-71
2024/04/08 10:28:05;;;;;;;11.93;2.40;;;27.70;60.00;;;;;;5504466;26;20358;-70
2024/04/08 10:30:32;;;;;;;6.45;2.00;;;27.80;59.90;;;;;;5482761;26;20426;-71
2024/04/08 10:32:59;;;;;;;14.13;2.70;;;28.00;67.80;;;;;;5503461;26;20465;-71
2024/04/08 10:35:24;;;;;;;12.05;2.03;;;28.10;85.90;;;;;;5501695;26;19997;-71
2024/04/08 10:37:50;;;;;;;6.15;1.90;;;28.10;87.10;;;;;;5503643;26;20002;-71
2024/04/08 10:40:18;;;;;;;9.32;2.17;;;;;;;;;;5483685;26;20317;-71
2024/04/08 10:42:46;;;;;;;7.00;2.17;;;;;;;;;;5476729;26;20004;-71
2024/04/08 10:45:13;;;;;;;9.57;2.47;;;;;;;;;;5511332;26;19998;-71
2024/04/08 10:47:39;;;;;;;10.23;2.35;;;28.80;91.40;;;;;;5487354;26;20010;-71
2024/04/08 10:50:08;;;;;;;7.47;2.20;;;28.90;57.50;;;;;;5488372;26;20296;-70
2024/04/08 10:52:38;;;;;;;10.20;2.43;;;29.00;55.90;;;;;;5508340;26;20002;-72
2024/04/08 10:55:04;;;;;;;8.82;1.95;;;29.10;55.70;;;;;;5505750;26;20621;-69
2024/04/08 10:57:30;;;;;;;10.98;2.05;;;29.10;55.80;;;;;;5476338;26;20009;-69
2024/04/08 10:59:56;;;;;;;7.25;2.22;;;29.10;55.00;;;;;;5487637;26;20001;-69
2024/04/08 11:02:21;;;;;;;9.80;2.03;;;29.20;54.70;;;;;;5512624;26;20069;-69
2024/04/08 11:04:47;;;;;;;11.38;2.33;;;29.40;53.90;;;;;;5515764;26;20012;-69
2024/04/08 11:07:13;;;;;;;15.13;2.10;;;29.60;53.50;;;;;;5492445;26;20420;-69
2024/04/08 11:09:40;;;;;;;8.35;2.38;;;29.60;53.40;;;;;;5491922;26;20047;-70
2024/04/08 11:12:06;;;;;;;10.32;2.33;;;29.70;53.00;;;;;;5458112;26;20015;-69
2024/04/08 11:14:32;;;;;;;15.88;2.63;;;29.90;53.10;;;;;;5483211;26;20005;-70
2024/04/08 11:17:01;;;;;;;37.70;3.92;;;29.90;53.90;;;;;;5496772;26;19998;-70
2024/04/08 11:19:28;;;;;;;12.97;3.00;;;30.10;53.90;;;;;;5507806;26;20013;-69
2024/04/08 11:21:55;;;;;;;8.85;2.97;;;30.30;53.60;;;;;;5520231;26;20071;-69
2024/04/08 11:24:21;;;;;;;15.80;2.92;;;30.50;52.30;;;;;;5500930;26;20008;-69
2024/04/08 11:26:47;;;;;;;10.73;2.50;;;30.60;52.40;;;;;;5504037;26;20002;-68
2024/04/08 11:29:12;;;;;;;11.27;2.63;;;30.60;53.50;;;;;;5477994;26;19999;-68
2024/04/08 11:31:38;;;;;;;15.00;2.78;;;30.80;53.00;;;;;;5482931;26;20008;-69
2024/04/08 11:34:04;;;;;;;11.93;2.22;;;30.90;52.80;;;;;;5499112;26;19998;-72
2024/04/08 11:36:29;;;;;;;9.15;2.22;;;31.00;53.60;;;;;;5497361;26;20009;-73
2024/04/08 11:38:56;;;;;;;8.45;2.22;;;31.10;53.80;;;;;;5506813;26;20708;-70
2024/04/08 11:41:22;;;;;;;11.32;2.92;;;31.10;53.50;;;;;;5470226;26;20720;-70
2024/04/08 11:43:47;;;;;;;13.48;2.85;;;31.30;54.00;;;;;;5473138;26;20013;-70
2024/04/08 11:46:13;;;;;;;16.25;2.65;;;31.40;53.40;;;;;;5503786;26;19990;-70
2024/04/08 11:48:41;;;;;;;9.80;2.78;;;31.40;53.50;;;;;;5505225;26;20014;-70
2024/04/08 11:51:07;;;;;;;14.50;2.67;;;31.60;53.40;;;;;;5472101;26;19998;-70
2024/04/08 11:53:33;;;;;;;17.98;2.55;;;31.80;54.20;;;;;;5494900;26;19994;-70
2024/04/08 11:55:58;;;;;;;7.22;2.95;;;32.00;53.70;;;;;;5473462;26;20012;-70
2024/04/08 11:58:25;;;;;;;10.15;3.25;;;32.00;53.10;;;;;;5517080;26;20461;-70
2024/04/08 12:00:50;;;;;;;17.02;2.97;;;32.10;53.60;;;;;;5469271;26;20001;-70
2024/04/08 12:03:16;;;;;;;13.13;2.85;;;32.10;53.20;;;;;;5485616;26;19998;-70
2024/04/08 12:05:44;;;;;;;27.75;2.90;;;32.00;53.50;;;;;;5481784;26;19997;-70
2024/04/08 12:08:09;;;;;;;13.30;2.83;;;32.10;53.60;;;;;;5494682;26;19994;-70
2024/04/08 12:10:35;;;;;;;17.50;3.25;;;32.20;53.00;;;;;;5463889;26;20447;-70
2024/04/08 12:13:17;;;;;;;18.98;3.15;;;32.30;53.00;;;;;;5479182;26;20362;-70
2024/04/08 12:15:43;;;;;;;18.58;3.60;;;32.50;54.40;;;;;;5482217;26;20035;-70
2024/04/08 12:18:09;;;;;;;10.70;2.45;;;32.80;52.90;;;;;;5487727;26;20002;-70
2024/04/08 12:20:35;;;;;;;15.40;2.65;;;33.00;53.10;;;;;;5498196;26;20008;-70
2024/04/08 12:23:00;;;;;;;13.05;3.30;;;33.10;52.80;;;;;;5509448;26;20358;-70
2024/04/08 12:25:26;;;;;;;21.38;3.53;;;33.30;53.20;;;;;;5483656;26;20006;-70
2024/04/08 12:27:52;;;;;;;15.55;3.60;;;33.20;53.20;;;;;;5449740;26;20821;-70
2024/04/08 12:30:17;;;;;;;12.10;2.90;;;33.10;52.50;;;;;;5503163;26;20316;-70
2024/04/08 12:32:43;;;;;;;18.42;3.80;;;33.00;52.80;;;;;;5518278;26;20069;-70
2024/04/08 12:35:09;;;;;;;12.40;3.53;;;33.00;53.10;;;;;;5497904;26;20447;-70
2024/04/08 12:37:34;;;;;;;14.13;3.08;;;33.00;52.40;;;;;;5472980;26;20422;-69